sensor_id;sensor_type;location;lat;lon;timestamp;temperature;humidity
49379;DHT22;35254;47.990;-1.608;2023-05-10T00:00:53;20.70;62.20
49379;DHT22;35254;47.990;-1.608;2023-05-10T00:03:18;20.60;62.30
49379;DHT22;35254;47.990;-1.608;2023-05-10T00:05:44;20.60;62.30
49379;DHT22;35254;47.990;-1.608;2023-05-10T00:08:10;20.60;62.30
49379;DHT22;35254;47.990;-1.608;2023-05-10T00:10:35;20.60;62.30
49379;DHT22;35254;47.990;-1.608;2023-05-10T00:13:02;20.60;62.10
49379;DHT22;35254;47.990;-1.608;2023-05-10T00:15:28;20.60;62.10
49379;DHT22;35254;47.990;-1.608;2023-05-10T00:17:56;20.60;62.00
49379;DHT22;35254;47.990;-1.608;2023-05-10T00:20:21;20.60;62.00
49379;DHT22;35254;47.990;-1.608;2023-05-10T00:22:47;20.60;62.00
49379;DHT22;35254;47.990;-1.608;2023-05-10T00:25:13;20.60;62.00
49379;DHT22;35254;47.990;-1.608;2023-05-10T00:27:38;20.60;61.80
49379;DHT22;35254;47.990;-1.608;2023-05-10T00:30:05;20.60;61.70
49379;DHT22;35254;47.990;-1.608;2023-05-10T00:32:31;20.60;61.80
49379;DHT22;35254;47.990;-1.608;2023-05-10T00:34:57;20.60;61.70
49379;DHT22;35254;47.990;-1.608;2023-05-10T00:37:23;20.50;61.70
49379;DHT22;35254;47.990;-1.608;2023-05-10T00:39:48;20.50;61.40
49379;DHT22;35254;47.990;-1.608;2023-05-10T00:42:14;20.50;61.40
49379;DHT22;35254;47.990;-1.608;2023-05-10T00:44:39;20.50;61.60
49379;DHT22;35254;47.990;-1.608;2023-05-10T00:47:05;20.50;62.70
49379;DHT22;35254;47.990;-1.608;2023-05-10T00:49:31;20.50;63.00
49379;DHT22;35254;47.990;-1.608;2023-05-10T00:51:57;20.50;63.10
49379;DHT22;35254;47.990;-1.608;2023-05-10T00:54:22;20.50;63.00
49379;DHT22;35254;47.990;-1.608;2023-05-10T00:56:48;20.50;62.80
49379;DHT22;35254;47.990;-1.608;2023-05-10T00:59:18;20.50;62.80
49379;DHT22;35254;47.990;-1.608;2023-05-10T01:01:44;20.50;62.80
49379;DHT22;35254;47.990;-1.608;2023-05-10T01:04:12;20.50;62.80
49379;DHT22;35254;47.990;-1.608;2023-05-10T01:06:43;20.50;62.80
49379;DHT22;35254;47.990;-1.608;2023-05-10T01:09:09;20.50;62.70
49379;DHT22;35254;47.990;-1.608;2023-05-10T01:11:36;20.50;62.70
49379;DHT22;35254;47.990;-1.608;2023-05-10T01:14:03;20.40;62.40
49379;DHT22;35254;47.990;-1.608;2023-05-10T01:16:36;20.40;62.20
49379;DHT22;35254;47.990;-1.608;2023-05-10T01:19:05;20.40;62.30
49379;DHT22;35254;47.990;-1.608;2023-05-10T01:35:03;20.40;61.90
49379;DHT22;35254;47.990;-1.608;2023-05-10T01:37:45;20.40;61.90
49379;DHT22;35254;47.990;-1.608;2023-05-10T01:40:17;20.40;61.80
49379;DHT22;35254;47.990;-1.608;2023-05-10T01:42:51;20.40;61.70
49379;DHT22;35254;47.990;-1.608;2023-05-10T01:45:28;20.40;61.80
49379;DHT22;35254;47.990;-1.608;2023-05-10T01:48:05;20.30;61.90
49379;DHT22;35254;47.990;-1.608;2023-05-10T01:50:32;20.40;61.80
49379;DHT22;35254;47.990;-1.608;2023-05-10T01:53:01;20.30;61.90
49379;DHT22;35254;47.990;-1.608;2023-05-10T01:55:30;20.30;62.10
49379;DHT22;35254;47.990;-1.608;2023-05-10T01:58:06;20.30;61.90
49379;DHT22;35254;47.990;-1.608;2023-05-10T02:00:34;20.30;62.00
49379;DHT22;35254;47.990;-1.608;2023-05-10T02:03:05;20.30;61.60
49379;DHT22;35254;47.990;-1.608;2023-05-10T02:05:32;20.30;61.80
49379;DHT22;35254;47.990;-1.608;2023-05-10T02:07:59;20.30;61.80
49379;DHT22;35254;47.990;-1.608;2023-05-10T02:10:26;20.30;61.90
49379;DHT22;35254;47.990;-1.608;2023-05-10T02:12:53;20.30;61.70
49379;DHT22;35254;47.990;-1.608;2023-05-10T02:15:23;20.30;61.40
49379;DHT22;35254;47.990;-1.608;2023-05-10T02:17:50;20.20;61.50
49379;DHT22;35254;47.990;-1.608;2023-05-10T02:20:19;20.30;61.30
49379;DHT22;35254;47.990;-1.608;2023-05-10T02:22:47;20.20;61.30
49379;DHT22;35254;47.990;-1.608;2023-05-10T02:25:15;20.20;61.10
49379;DHT22;35254;47.990;-1.608;2023-05-10T02:27:43;20.20;61.10
49379;DHT22;35254;47.990;-1.608;2023-05-10T02:30:10;20.20;61.20
49379;DHT22;35254;47.990;-1.608;2023-05-10T02:32:37;20.20;61.00
49379;DHT22;35254;47.990;-1.608;2023-05-10T02:35:03;20.20;61.00
49379;DHT22;35254;47.990;-1.608;2023-05-10T02:37:30;20.20;61.10
49379;DHT22;35254;47.990;-1.608;2023-05-10T02:39:57;20.20;61.00
49379;DHT22;35254;47.990;-1.608;2023-05-10T02:42:27;20.20;60.90
49379;DHT22;35254;47.990;-1.608;2023-05-10T02:44:59;20.20;60.80
49379;DHT22;35254;47.990;-1.608;2023-05-10T02:47:26;20.20;60.70
49379;DHT22;35254;47.990;-1.608;2023-05-10T02:49:51;20.20;61.00
49379;DHT22;35254;47.990;-1.608;2023-05-10T02:52:23;20.20;61.00
49379;DHT22;35254;47.990;-1.608;2023-05-10T02:54:54;20.20;60.80
49379;DHT22;35254;47.990;-1.608;2023-05-10T02:57:25;20.20;61.10
49379;DHT22;35254;47.990;-1.608;2023-05-10T02:59:51;20.20;61.10
49379;DHT22;35254;47.990;-1.608;2023-05-10T03:02:17;20.20;60.90
49379;DHT22;35254;47.990;-1.608;2023-05-10T03:04:43;20.20;61.20
49379;DHT22;35254;47.990;-1.608;2023-05-10T03:07:09;20.20;61.00
49379;DHT22;35254;47.990;-1.608;2023-05-10T03:09:35;20.20;61.10
49379;DHT22;35254;47.990;-1.608;2023-05-10T03:12:07;20.20;61.00
49379;DHT22;35254;47.990;-1.608;2023-05-10T03:20:06;20.20;60.60
49379;DHT22;35254;47.990;-1.608;2023-05-10T03:22:37;20.10;60.70
49379;DHT22;35254;47.990;-1.608;2023-05-10T03:25:08;20.20;60.30
49379;DHT22;35254;47.990;-1.608;2023-05-10T03:27:39;20.10;60.50
49379;DHT22;35254;47.990;-1.608;2023-05-10T03:30:07;20.10;60.50
49379;DHT22;35254;47.990;-1.608;2023-05-10T03:32:33;20.10;60.60
49379;DHT22;35254;47.990;-1.608;2023-05-10T03:35:00;20.10;60.40
49379;DHT22;35254;47.990;-1.608;2023-05-10T03:37:25;20.10;60.30
49379;DHT22;35254;47.990;-1.608;2023-05-10T03:39:51;20.10;60.40
49379;DHT22;35254;47.990;-1.608;2023-05-10T03:42:17;20.10;60.30
49379;DHT22;35254;47.990;-1.608;2023-05-10T03:44:43;20.10;60.20
49379;DHT22;35254;47.990;-1.608;2023-05-10T03:47:08;20.10;60.10
49379;DHT22;35254;47.990;-1.608;2023-05-10T03:49:34;20.10;60.20
49379;DHT22;35254;47.990;-1.608;2023-05-10T03:52:00;20.10;60.40
49379;DHT22;35254;47.990;-1.608;2023-05-10T03:54:25;20.00;60.50
49379;DHT22;35254;47.990;-1.608;2023-05-10T03:56:51;20.10;60.30
49379;DHT22;35254;47.990;-1.608;2023-05-10T03:59:17;20.00;60.30
49379;DHT22;35254;47.990;-1.608;2023-05-10T04:01:42;20.00;60.30
49379;DHT22;35254;47.990;-1.608;2023-05-10T04:04:08;20.00;60.40
49379;DHT22;35254;47.990;-1.608;2023-05-10T04:06:33;20.00;60.50
49379;DHT22;35254;47.990;-1.608;2023-05-10T04:08:59;20.00;60.50
49379;DHT22;35254;47.990;-1.608;2023-05-10T04:11:29;20.00;60.40
49379;DHT22;35254;47.990;-1.608;2023-05-10T04:13:54;20.00;60.40
49379;DHT22;35254;47.990;-1.608;2023-05-10T04:16:20;20.00;60.30
49379;DHT22;35254;47.990;-1.608;2023-05-10T04:18:46;20.00;60.20
49379;DHT22;35254;47.990;-1.608;2023-05-10T04:21:12;20.00;60.30
49379;DHT22;35254;47.990;-1.608;2023-05-10T04:23:39;20.00;60.20
49379;DHT22;35254;47.990;-1.608;2023-05-10T04:26:04;20.00;60.20
49379;DHT22;35254;47.990;-1.608;2023-05-10T04:28:30;20.00;60.20
49379;DHT22;35254;47.990;-1.608;2023-05-10T04:31:07;19.90;60.10
49379;DHT22;35254;47.990;-1.608;2023-05-10T04:33:33;20.00;60.00
49379;DHT22;35254;47.990;-1.608;2023-05-10T04:35:59;19.90;60.00
49379;DHT22;35254;47.990;-1.608;2023-05-10T04:38:24;19.90;60.10
49379;DHT22;35254;47.990;-1.608;2023-05-10T04:40:50;19.90;60.00
49379;DHT22;35254;47.990;-1.608;2023-05-10T04:43:16;19.90;60.00
49379;DHT22;35254;47.990;-1.608;2023-05-10T04:45:42;19.90;59.90
49379;DHT22;35254;47.990;-1.608;2023-05-10T04:48:07;19.90;59.80
49379;DHT22;35254;47.990;-1.608;2023-05-10T04:50:33;19.90;60.10
49379;DHT22;35254;47.990;-1.608;2023-05-10T04:52:59;19.90;59.90
49379;DHT22;35254;47.990;-1.608;2023-05-10T04:55:24;19.90;59.90
49379;DHT22;35254;47.990;-1.608;2023-05-10T04:57:50;19.90;59.70
49379;DHT22;35254;47.990;-1.608;2023-05-10T05:00:16;19.90;60.00
49379;DHT22;35254;47.990;-1.608;2023-05-10T05:02:45;19.90;60.10
49379;DHT22;35254;47.990;-1.608;2023-05-10T05:05:11;19.90;60.30
49379;DHT22;35254;47.990;-1.608;2023-05-10T05:07:37;19.90;60.30
49379;DHT22;35254;47.990;-1.608;2023-05-10T05:10:05;19.90;60.10
49379;DHT22;35254;47.990;-1.608;2023-05-10T05:12:31;19.90;60.10
49379;DHT22;35254;47.990;-1.608;2023-05-10T05:14:57;19.80;60.10
49379;DHT22;35254;47.990;-1.608;2023-05-10T05:17:22;19.90;60.00
49379;DHT22;35254;47.990;-1.608;2023-05-10T05:19:48;19.90;60.10
49379;DHT22;35254;47.990;-1.608;2023-05-10T05:22:13;19.90;59.90
49379;DHT22;35254;47.990;-1.608;2023-05-10T05:24:39;19.80;60.00
49379;DHT22;35254;47.990;-1.608;2023-05-10T05:27:05;19.80;60.00
49379;DHT22;35254;47.990;-1.608;2023-05-10T05:29:31;19.80;60.00
49379;DHT22;35254;47.990;-1.608;2023-05-10T05:31:57;19.80;59.90
49379;DHT22;35254;47.990;-1.608;2023-05-10T05:34:22;19.80;59.90
49379;DHT22;35254;47.990;-1.608;2023-05-10T05:36:48;19.80;60.00
49379;DHT22;35254;47.990;-1.608;2023-05-10T05:39:14;19.80;59.90
49379;DHT22;35254;47.990;-1.608;2023-05-10T05:41:39;19.80;59.90
49379;DHT22;35254;47.990;-1.608;2023-05-10T05:44:05;19.80;60.00
49379;DHT22;35254;47.990;-1.608;2023-05-10T05:46:30;19.80;59.90
49379;DHT22;35254;47.990;-1.608;2023-05-10T05:48:56;19.70;59.80
49379;DHT22;35254;47.990;-1.608;2023-05-10T05:51:22;19.70;59.80
49379;DHT22;35254;47.990;-1.608;2023-05-10T05:53:47;19.80;59.90
49379;DHT22;35254;47.990;-1.608;2023-05-10T05:56:13;19.70;59.90
49379;DHT22;35254;47.990;-1.608;2023-05-10T05:58:39;19.70;60.10
49379;DHT22;35254;47.990;-1.608;2023-05-10T06:01:05;19.70;60.10
49379;DHT22;35254;47.990;-1.608;2023-05-10T06:03:30;19.70;60.00
49379;DHT22;35254;47.990;-1.608;2023-05-10T06:05:56;19.70;60.10
49379;DHT22;35254;47.990;-1.608;2023-05-10T06:08:21;19.70;60.10
49379;DHT22;35254;47.990;-1.608;2023-05-10T06:10:47;19.70;60.10
49379;DHT22;35254;47.990;-1.608;2023-05-10T06:13:13;19.70;60.10
49379;DHT22;35254;47.990;-1.608;2023-05-10T06:15:39;19.70;60.10
49379;DHT22;35254;47.990;-1.608;2023-05-10T06:18:05;19.70;60.00
49379;DHT22;35254;47.990;-1.608;2023-05-10T06:20:31;19.70;60.10
49379;DHT22;35254;47.990;-1.608;2023-05-10T06:22:57;19.70;60.00
49379;DHT22;35254;47.990;-1.608;2023-05-10T06:25:23;19.70;59.90
49379;DHT22;35254;47.990;-1.608;2023-05-10T06:27:48;19.70;59.90
49379;DHT22;35254;47.990;-1.608;2023-05-10T06:30:14;19.70;59.90
49379;DHT22;35254;47.990;-1.608;2023-05-10T06:32:41;19.70;60.00
49379;DHT22;35254;47.990;-1.608;2023-05-10T06:35:07;19.70;59.90
49379;DHT22;35254;47.990;-1.608;2023-05-10T06:37:33;19.70;60.00
49379;DHT22;35254;47.990;-1.608;2023-05-10T06:39:59;19.70;60.10
49379;DHT22;35254;47.990;-1.608;2023-05-10T06:42:26;19.70;60.20
49379;DHT22;35254;47.990;-1.608;2023-05-10T06:44:52;19.70;60.20
49379;DHT22;35254;47.990;-1.608;2023-05-10T06:47:18;19.70;60.10
49379;DHT22;35254;47.990;-1.608;2023-05-10T06:49:44;19.70;60.20
49379;DHT22;35254;47.990;-1.608;2023-05-10T06:52:09;19.70;60.20
49379;DHT22;35254;47.990;-1.608;2023-05-10T06:54:35;19.70;60.20
49379;DHT22;35254;47.990;-1.608;2023-05-10T06:57:00;19.60;60.30
49379;DHT22;35254;47.990;-1.608;2023-05-10T06:59:28;19.60;60.40
49379;DHT22;35254;47.990;-1.608;2023-05-10T07:01:53;19.60;60.70
49379;DHT22;35254;47.990;-1.608;2023-05-10T07:04:19;19.60;60.50
49379;DHT22;35254;47.990;-1.608;2023-05-10T07:06:45;19.70;60.30
49379;DHT22;35254;47.990;-1.608;2023-05-10T07:09:11;19.70;60.40
49379;DHT22;35254;47.990;-1.608;2023-05-10T07:11:38;19.70;61.30
49379;DHT22;35254;47.990;-1.608;2023-05-10T07:14:04;19.70;59.60
49379;DHT22;35254;47.990;-1.608;2023-05-10T07:16:30;19.60;60.70
49379;DHT22;35254;47.990;-1.608;2023-05-10T07:18:56;19.60;60.80
49379;DHT22;35254;47.990;-1.608;2023-05-10T07:21:22;19.60;61.00
49379;DHT22;35254;47.990;-1.608;2023-05-10T07:23:49;19.60;60.70
49379;DHT22;35254;47.990;-1.608;2023-05-10T07:26:15;19.70;60.40
49379;DHT22;35254;47.990;-1.608;2023-05-10T07:28:42;19.70;60.70
49379;DHT22;35254;47.990;-1.608;2023-05-10T07:31:07;19.60;60.80
49379;DHT22;35254;47.990;-1.608;2023-05-10T07:33:33;19.60;60.70
49379;DHT22;35254;47.990;-1.608;2023-05-10T07:35:58;19.60;60.80
49379;DHT22;35254;47.990;-1.608;2023-05-10T07:38:24;19.70;60.40
49379;DHT22;35254;47.990;-1.608;2023-05-10T07:40:50;19.70;60.60
49379;DHT22;35254;47.990;-1.608;2023-05-10T07:43:15;19.70;60.60
49379;DHT22;35254;47.990;-1.608;2023-05-10T07:45:41;19.60;60.60
49379;DHT22;35254;47.990;-1.608;2023-05-10T07:48:07;19.70;60.60
49379;DHT22;35254;47.990;-1.608;2023-05-10T07:50:33;19.70;60.50
49379;DHT22;35254;47.990;-1.608;2023-05-10T07:52:59;19.70;60.40
49379;DHT22;35254;47.990;-1.608;2023-05-10T07:55:24;19.60;60.50
49379;DHT22;35254;47.990;-1.608;2023-05-10T07:57:50;19.60;60.80
49379;DHT22;35254;47.990;-1.608;2023-05-10T08:00:19;19.60;60.70
49379;DHT22;35254;47.990;-1.608;2023-05-10T08:02:46;19.60;60.80
49379;DHT22;35254;47.990;-1.608;2023-05-10T08:05:12;19.60;60.80
49379;DHT22;35254;47.990;-1.608;2023-05-10T08:07:38;19.60;60.70
49379;DHT22;35254;47.990;-1.608;2023-05-10T08:10:05;19.60;60.70
49379;DHT22;35254;47.990;-1.608;2023-05-10T08:12:30;19.60;60.80
49379;DHT22;35254;47.990;-1.608;2023-05-10T08:14:56;19.60;60.80
49379;DHT22;35254;47.990;-1.608;2023-05-10T08:17:22;19.60;61.20
49379;DHT22;35254;47.990;-1.608;2023-05-10T08:19:47;19.60;61.00
49379;DHT22;35254;47.990;-1.608;2023-05-10T08:22:13;19.60;60.90
49379;DHT22;35254;47.990;-1.608;2023-05-10T08:24:39;19.60;60.90
49379;DHT22;35254;47.990;-1.608;2023-05-10T08:27:05;19.60;60.70
49379;DHT22;35254;47.990;-1.608;2023-05-10T08:29:31;19.60;60.80
49379;DHT22;35254;47.990;-1.608;2023-05-10T08:31:56;19.60;60.90
49379;DHT22;35254;47.990;-1.608;2023-05-10T08:34:22;19.60;61.00
49379;DHT22;35254;47.990;-1.608;2023-05-10T08:36:48;19.60;61.10
49379;DHT22;35254;47.990;-1.608;2023-05-10T08:39:14;19.60;60.90
49379;DHT22;35254;47.990;-1.608;2023-05-10T08:41:39;19.70;61.10
49379;DHT22;35254;47.990;-1.608;2023-05-10T08:44:09;19.70;60.70
49379;DHT22;35254;47.990;-1.608;2023-05-10T08:46:37;19.70;60.70
49379;DHT22;35254;47.990;-1.608;2023-05-10T08:49:06;19.70;60.80
49379;DHT22;35254;47.990;-1.608;2023-05-10T08:51:40;19.70;60.90
49379;DHT22;35254;47.990;-1.608;2023-05-10T08:54:08;19.70;61.20
49379;DHT22;35254;47.990;-1.608;2023-05-10T08:56:34;19.80;61.10
49379;DHT22;35254;47.990;-1.608;2023-05-10T08:59:00;19.80;61.00
49379;DHT22;35254;47.990;-1.608;2023-05-10T09:01:26;19.80;61.00
49379;DHT22;35254;47.990;-1.608;2023-05-10T09:03:52;19.80;60.90
49379;DHT22;35254;47.990;-1.608;2023-05-10T09:06:18;19.80;60.90
49379;DHT22;35254;47.990;-1.608;2023-05-10T09:08:44;19.80;60.90
49379;DHT22;35254;47.990;-1.608;2023-05-10T09:11:11;19.80;60.80
49379;DHT22;35254;47.990;-1.608;2023-05-10T09:13:37;19.80;60.80
49379;DHT22;35254;47.990;-1.608;2023-05-10T09:16:04;19.80;60.80
49379;DHT22;35254;47.990;-1.608;2023-05-10T09:18:29;19.80;60.90
49379;DHT22;35254;47.990;-1.608;2023-05-10T09:20:56;19.90;60.90
49379;DHT22;35254;47.990;-1.608;2023-05-10T09:23:22;19.90;60.80
49379;DHT22;35254;47.990;-1.608;2023-05-10T09:26:02;19.90;60.80
49379;DHT22;35254;47.990;-1.608;2023-05-10T09:28:32;19.90;60.80
49379;DHT22;35254;47.990;-1.608;2023-05-10T09:30:57;19.90;60.80
49379;DHT22;35254;47.990;-1.608;2023-05-10T09:33:24;19.90;60.90
49379;DHT22;35254;47.990;-1.608;2023-05-10T09:35:51;19.90;60.80
49379;DHT22;35254;47.990;-1.608;2023-05-10T09:38:17;19.90;60.80
49379;DHT22;35254;47.990;-1.608;2023-05-10T09:40:51;19.90;60.80
49379;DHT22;35254;47.990;-1.608;2023-05-10T09:43:20;19.90;60.80
49379;DHT22;35254;47.990;-1.608;2023-05-10T09:45:48;19.90;60.90
49379;DHT22;35254;47.990;-1.608;2023-05-10T09:48:15;19.90;60.80
49379;DHT22;35254;47.990;-1.608;2023-05-10T09:50:41;19.90;60.80
49379;DHT22;35254;47.990;-1.608;2023-05-10T09:53:07;19.90;60.80
49379;DHT22;35254;47.990;-1.608;2023-05-10T09:55:39;19.90;60.80
49379;DHT22;35254;47.990;-1.608;2023-05-10T09:58:06;19.90;60.80
49379;DHT22;35254;47.990;-1.608;2023-05-10T10:00:46;19.90;60.80
49379;DHT22;35254;47.990;-1.608;2023-05-10T10:03:14;19.90;60.80
49379;DHT22;35254;47.990;-1.608;2023-05-10T10:05:41;19.90;60.80
49379;DHT22;35254;47.990;-1.608;2023-05-10T10:08:09;20.00;60.80
49379;DHT22;35254;47.990;-1.608;2023-05-10T10:10:34;20.00;60.80
49379;DHT22;35254;47.990;-1.608;2023-05-10T10:13:01;20.00;60.80
49379;DHT22;35254;47.990;-1.608;2023-05-10T10:15:27;20.00;60.80
49379;DHT22;35254;47.990;-1.608;2023-05-10T10:17:53;20.00;60.70
49379;DHT22;35254;47.990;-1.608;2023-05-10T10:20:20;20.00;60.80
49379;DHT22;35254;47.990;-1.608;2023-05-10T10:22:48;20.00;60.70
49379;DHT22;35254;47.990;-1.608;2023-05-10T10:25:17;20.00;60.70
49379;DHT22;35254;47.990;-1.608;2023-05-10T10:35:45;19.90;60.80
49379;DHT22;35254;47.990;-1.608;2023-05-10T10:38:12;20.00;60.80
49379;DHT22;35254;47.990;-1.608;2023-05-10T10:40:38;20.00;60.80
49379;DHT22;35254;47.990;-1.608;2023-05-10T10:43:26;20.00;60.80
49379;DHT22;35254;47.990;-1.608;2023-05-10T10:46:15;20.00;60.80
49379;DHT22;35254;47.990;-1.608;2023-05-10T10:48:47;20.10;60.80
49379;DHT22;35254;47.990;-1.608;2023-05-10T10:51:13;20.10;60.70
49379;DHT22;35254;47.990;-1.608;2023-05-10T10:53:40;20.10;60.80
49379;DHT22;35254;47.990;-1.608;2023-05-10T10:58:33;20.00;60.80
49379;DHT22;35254;47.990;-1.608;2023-05-10T11:01:14;20.00;60.90
49379;DHT22;35254;47.990;-1.608;2023-05-10T11:03:40;20.10;60.90
49379;DHT22;35254;47.990;-1.608;2023-05-10T11:06:06;20.00;61.00
49379;DHT22;35254;47.990;-1.608;2023-05-10T11:08:35;20.10;61.00
49379;DHT22;35254;47.990;-1.608;2023-05-10T11:11:06;20.10;60.90
49379;DHT22;35254;47.990;-1.608;2023-05-10T11:13:43;20.10;61.00
49379;DHT22;35254;47.990;-1.608;2023-05-10T11:16:21;20.10;61.00
49379;DHT22;35254;47.990;-1.608;2023-05-10T11:19:03;20.10;60.90
49379;DHT22;35254;47.990;-1.608;2023-05-10T11:21:30;20.10;61.10
49379;DHT22;35254;47.990;-1.608;2023-05-10T11:23:57;20.10;61.10
49379;DHT22;35254;47.990;-1.608;2023-05-10T11:26:33;20.10;61.20
49379;DHT22;35254;47.990;-1.608;2023-05-10T11:29:00;20.00;61.10
49379;DHT22;35254;47.990;-1.608;2023-05-10T11:31:27;20.10;61.20
49379;DHT22;35254;47.990;-1.608;2023-05-10T11:33:55;20.10;61.20
49379;DHT22;35254;47.990;-1.608;2023-05-10T11:36:29;20.10;61.20
49379;DHT22;35254;47.990;-1.608;2023-05-10T11:38:57;20.10;61.20
49379;DHT22;35254;47.990;-1.608;2023-05-10T11:41:24;20.10;61.30
49379;DHT22;35254;47.990;-1.608;2023-05-10T11:43:51;20.10;61.50
49379;DHT22;35254;47.990;-1.608;2023-05-10T11:46:19;20.10;61.60
49379;DHT22;35254;47.990;-1.608;2023-05-10T11:48:50;20.10;61.70
49379;DHT22;35254;47.990;-1.608;2023-05-10T11:51:23;20.10;61.80
49379;DHT22;35254;47.990;-1.608;2023-05-10T11:53:54;20.10;62.00
49379;DHT22;35254;47.990;-1.608;2023-05-10T11:56:20;20.10;62.10
49379;DHT22;35254;47.990;-1.608;2023-05-10T11:58:56;20.10;62.10
49379;DHT22;35254;47.990;-1.608;2023-05-10T12:01:23;20.10;62.20
49379;DHT22;35254;47.990;-1.608;2023-05-10T12:03:50;20.10;62.20
49379;DHT22;35254;47.990;-1.608;2023-05-10T12:06:18;20.20;62.20
49379;DHT22;35254;47.990;-1.608;2023-05-10T12:08:46;20.10;62.20
49379;DHT22;35254;47.990;-1.608;2023-05-10T12:11:12;20.20;62.10
49379;DHT22;35254;47.990;-1.608;2023-05-10T12:13:42;20.20;62.00
49379;DHT22;35254;47.990;-1.608;2023-05-10T12:16:24;20.20;62.10
49379;DHT22;35254;47.990;-1.608;2023-05-10T12:18:52;20.20;62.00
49379;DHT22;35254;47.990;-1.608;2023-05-10T12:21:19;20.20;62.00
49379;DHT22;35254;47.990;-1.608;2023-05-10T12:23:46;20.20;62.00
49379;DHT22;35254;47.990;-1.608;2023-05-10T12:26:12;20.20;61.90
49379;DHT22;35254;47.990;-1.608;2023-05-10T12:28:38;20.20;61.90
49379;DHT22;35254;47.990;-1.608;2023-05-10T12:31:08;20.20;61.90
49379;DHT22;35254;47.990;-1.608;2023-05-10T12:33:41;20.20;62.00
49379;DHT22;35254;47.990;-1.608;2023-05-10T12:36:11;20.20;62.00
49379;DHT22;35254;47.990;-1.608;2023-05-10T12:38:39;20.20;61.90
49379;DHT22;35254;47.990;-1.608;2023-05-10T12:41:07;20.20;61.90
49379;DHT22;35254;47.990;-1.608;2023-05-10T12:43:33;20.20;61.90
49379;DHT22;35254;47.990;-1.608;2023-05-10T12:46:05;20.20;61.90
49379;DHT22;35254;47.990;-1.608;2023-05-10T12:48:31;20.20;61.90
49379;DHT22;35254;47.990;-1.608;2023-05-10T12:50:57;20.20;61.90
49379;DHT22;35254;47.990;-1.608;2023-05-10T12:53:22;20.20;61.90
49379;DHT22;35254;47.990;-1.608;2023-05-10T12:55:48;20.20;61.90
49379;DHT22;35254;47.990;-1.608;2023-05-10T12:58:14;20.20;61.90
49379;DHT22;35254;47.990;-1.608;2023-05-10T13:00:39;20.20;61.90
49379;DHT22;35254;47.990;-1.608;2023-05-10T13:03:05;20.20;61.90
49379;DHT22;35254;47.990;-1.608;2023-05-10T13:05:34;20.20;61.90
49379;DHT22;35254;47.990;-1.608;2023-05-10T13:07:59;20.20;61.80
49379;DHT22;35254;47.990;-1.608;2023-05-10T13:10:25;20.20;61.90
49379;DHT22;35254;47.990;-1.608;2023-05-10T13:12:51;20.20;61.80
49379;DHT22;35254;47.990;-1.608;2023-05-10T13:15:17;20.20;61.80
49379;DHT22;35254;47.990;-1.608;2023-05-10T13:17:42;20.20;61.70
49379;DHT22;35254;47.990;-1.608;2023-05-10T13:20:09;20.20;61.80
49379;DHT22;35254;47.990;-1.608;2023-05-10T13:22:35;20.20;61.80
49379;DHT22;35254;47.990;-1.608;2023-05-10T13:25:01;20.20;61.80
49379;DHT22;35254;47.990;-1.608;2023-05-10T13:27:27;20.20;61.70
49379;DHT22;35254;47.990;-1.608;2023-05-10T13:29:52;20.20;61.80
49379;DHT22;35254;47.990;-1.608;2023-05-10T13:32:18;20.20;61.70
49379;DHT22;35254;47.990;-1.608;2023-05-10T13:34:44;20.20;61.70
49379;DHT22;35254;47.990;-1.608;2023-05-10T13:37:10;20.20;61.90
49379;DHT22;35254;47.990;-1.608;2023-05-10T13:39:35;20.20;61.90
49379;DHT22;35254;47.990;-1.608;2023-05-10T13:42:03;20.20;61.80
49379;DHT22;35254;47.990;-1.608;2023-05-10T13:44:29;20.20;61.80
49379;DHT22;35254;47.990;-1.608;2023-05-10T13:46:55;20.20;61.70
49379;DHT22;35254;47.990;-1.608;2023-05-10T13:49:21;20.20;61.70
49379;DHT22;35254;47.990;-1.608;2023-05-10T13:51:47;20.20;61.70
49379;DHT22;35254;47.990;-1.608;2023-05-10T13:54:13;20.20;61.70
49379;DHT22;35254;47.990;-1.608;2023-05-10T13:56:39;20.20;61.70
49379;DHT22;35254;47.990;-1.608;2023-05-10T13:59:06;20.20;61.60
49379;DHT22;35254;47.990;-1.608;2023-05-10T14:01:33;20.20;61.80
49379;DHT22;35254;47.990;-1.608;2023-05-10T14:04:00;20.20;61.60
49379;DHT22;35254;47.990;-1.608;2023-05-10T14:06:25;20.20;61.60
49379;DHT22;35254;47.990;-1.608;2023-05-10T14:08:52;20.20;61.60
49379;DHT22;35254;47.990;-1.608;2023-05-10T14:11:19;20.30;61.60
49379;DHT22;35254;47.990;-1.608;2023-05-10T14:13:45;20.20;61.60
49379;DHT22;35254;47.990;-1.608;2023-05-10T14:16:11;20.20;61.60
49379;DHT22;35254;47.990;-1.608;2023-05-10T14:18:37;20.30;61.60
49379;DHT22;35254;47.990;-1.608;2023-05-10T14:21:03;20.30;61.50
49379;DHT22;35254;47.990;-1.608;2023-05-10T14:23:29;20.30;61.60
49379;DHT22;35254;47.990;-1.608;2023-05-10T14:25:56;20.30;61.60
49379;DHT22;35254;47.990;-1.608;2023-05-10T14:28:21;20.30;61.70
49379;DHT22;35254;47.990;-1.608;2023-05-10T14:30:49;20.30;61.70
49379;DHT22;35254;47.990;-1.608;2023-05-10T14:33:16;20.30;61.70
49379;DHT22;35254;47.990;-1.608;2023-05-10T14:35:42;20.30;61.80
49379;DHT22;35254;47.990;-1.608;2023-05-10T14:38:08;20.30;61.80
49379;DHT22;35254;47.990;-1.608;2023-05-10T14:40:34;20.30;61.80
49379;DHT22;35254;47.990;-1.608;2023-05-10T14:43:00;20.40;61.80
49379;DHT22;35254;47.990;-1.608;2023-05-10T14:45:26;20.30;61.80
49379;DHT22;35254;47.990;-1.608;2023-05-10T14:47:52;20.40;61.80
49379;DHT22;35254;47.990;-1.608;2023-05-10T14:50:17;20.30;61.90
49379;DHT22;35254;47.990;-1.608;2023-05-10T14:52:43;20.30;61.90
49379;DHT22;35254;47.990;-1.608;2023-05-10T14:55:10;20.30;61.90
49379;DHT22;35254;47.990;-1.608;2023-05-10T14:57:38;20.30;61.90
49379;DHT22;35254;47.990;-1.608;2023-05-10T15:00:04;20.30;61.90
49379;DHT22;35254;47.990;-1.608;2023-05-10T15:02:32;20.40;61.90
49379;DHT22;35254;47.990;-1.608;2023-05-10T15:04:58;20.30;62.10
49379;DHT22;35254;47.990;-1.608;2023-05-10T15:07:24;20.30;62.00
49379;DHT22;35254;47.990;-1.608;2023-05-10T15:09:50;20.40;62.00
49379;DHT22;35254;47.990;-1.608;2023-05-10T15:12:17;20.30;62.00
49379;DHT22;35254;47.990;-1.608;2023-05-10T15:14:43;20.30;62.10
49379;DHT22;35254;47.990;-1.608;2023-05-10T15:17:09;20.30;62.00
49379;DHT22;35254;47.990;-1.608;2023-05-10T15:19:35;20.30;62.00
49379;DHT22;35254;47.990;-1.608;2023-05-10T15:22:02;20.40;62.00
49379;DHT22;35254;47.990;-1.608;2023-05-10T15:24:28;20.40;62.00
49379;DHT22;35254;47.990;-1.608;2023-05-10T15:26:54;20.40;62.00
49379;DHT22;35254;47.990;-1.608;2023-05-10T15:29:19;20.30;62.00
49379;DHT22;35254;47.990;-1.608;2023-05-10T15:31:50;20.40;62.10
49379;DHT22;35254;47.990;-1.608;2023-05-10T15:34:16;20.30;62.10
49379;DHT22;35254;47.990;-1.608;2023-05-10T15:36:43;20.40;62.10
49379;DHT22;35254;47.990;-1.608;2023-05-10T15:39:09;20.40;62.20
49379;DHT22;35254;47.990;-1.608;2023-05-10T15:41:35;20.40;62.10
49379;DHT22;35254;47.990;-1.608;2023-05-10T15:44:01;20.40;62.10